createdAt,value
2018-12-23T00:00:02.077Z,9.00
2018-12-23T00:02:30.539Z,6.03
2018-12-23T00:04:59.008Z,2.65
2018-12-23T00:07:28.271Z,5.50
2018-12-23T00:09:56.754Z,3.55
2018-12-23T00:12:25.228Z,4.50
2018-12-23T00:14:53.711Z,3.47
2018-12-23T00:17:22.176Z,6.55
2018-12-23T00:19:51.040Z,6.75
2018-12-23T00:22:20.174Z,4.30
2018-12-23T00:24:49.043Z,2.77
2018-12-23T00:27:17.534Z,5.65
2018-12-23T00:29:46.400Z,3.37
2018-12-23T00:32:15.259Z,2.65
2018-12-23T00:34:43.729Z,6.85
2018-12-23T00:37:12.593Z,6.20
2018-12-23T00:39:41.447Z,4.28
2018-12-23T00:42:10.312Z,2.60
2018-12-23T00:44:39.171Z,2.77
2018-12-23T00:47:08.421Z,4.60
2018-12-23T00:49:36.897Z,3.15
2018-12-23T00:52:06.138Z,5.85
2018-12-23T00:54:34.988Z,7.10
2018-12-23T00:57:04.256Z,4.83
2018-12-23T00:59:33.503Z,4.72
2018-12-23T01:02:02.325Z,3.35
2018-12-23T01:04:31.181Z,3.65
2018-12-23T01:07:00.421Z,2.95
2018-12-23T01:09:29.336Z,6.47
2018-12-23T01:11:57.819Z,2.67
2018-12-23T01:14:26.671Z,2.40
2018-12-23T01:16:55.491Z,3.37
2018-12-23T01:19:24.730Z,1.98
2018-12-23T01:21:53.982Z,3.80
2018-12-23T01:24:22.451Z,2.85
2018-12-23T01:26:51.696Z,4.47
2018-12-23T01:29:20.163Z,3.37
2018-12-23T01:31:49.423Z,2.52
2018-12-23T01:34:18.288Z,3.95
2018-12-23T01:36:47.080Z,2.92
2018-12-23T01:39:15.885Z,3.20
2018-12-23T01:41:44.757Z,4.92
2018-12-23T01:44:14.009Z,3.35
2018-12-23T01:46:42.477Z,3.25
2018-12-23T01:49:11.875Z,2.90
2018-12-23T01:51:40.346Z,3.33
2018-12-23T01:54:09.598Z,3.05
2018-12-23T01:56:38.452Z,3.65
2018-12-23T01:59:07.323Z,4.28
2018-12-23T02:01:36.215Z,2.00
2018-12-23T02:04:05.023Z,3.15
2018-12-23T02:06:33.836Z,2.27
2018-12-23T02:09:04.560Z,3.08
2018-12-23T02:11:33.035Z,4.40
2018-12-23T02:14:02.532Z,6.37
2018-12-23T02:16:31.335Z,3.52
2018-12-23T02:19:00.588Z,3.40
2018-12-23T02:21:29.459Z,5.37
2018-12-23T02:23:57.940Z,2.50
2018-12-23T02:26:27.190Z,4.35
2018-12-23T02:28:56.443Z,2.87
2018-12-23T02:31:25.311Z,2.50
2018-12-23T02:33:54.576Z,3.90
2018-12-23T02:36:23.450Z,4.85
2018-12-23T02:38:52.699Z,5.50
2018-12-23T02:41:21.589Z,4.12
2018-12-23T02:43:50.066Z,3.02
2018-12-23T02:46:18.933Z,5.42
2018-12-23T02:48:47.810Z,3.95
2018-12-23T02:51:16.662Z,3.60
2018-12-23T02:53:45.537Z,3.85
2018-12-23T02:56:14.393Z,4.10
2018-12-23T02:58:43.260Z,3.90
2018-12-23T03:01:11.743Z,3.05
2018-12-23T03:03:40.243Z,3.83
2018-12-23T03:06:09.518Z,4.00
2018-12-23T03:08:38.755Z,3.85
2018-12-23T03:11:07.622Z,5.80
2018-12-23T03:13:36.510Z,4.53
2018-12-23T03:16:05.403Z,4.35
2018-12-23T03:18:34.264Z,4.80
2018-12-23T03:21:03.807Z,4.30
2018-12-23T03:23:32.286Z,4.45
2018-12-23T03:26:00.777Z,5.40
2018-12-23T03:28:29.297Z,4.70
2018-12-23T03:30:57.778Z,5.85
2018-12-23T03:33:26.651Z,4.62
2018-12-23T03:35:55.911Z,5.00
2018-12-23T03:38:24.772Z,4.95
2018-12-23T03:40:53.633Z,5.20
2018-12-23T03:43:22.504Z,5.22
2018-12-23T03:45:50.967Z,4.58
2018-12-23T03:48:19.444Z,5.10
2018-12-23T03:50:47.912Z,5.62
2018-12-23T03:53:16.777Z,7.62
2018-12-23T03:55:46.026Z,6.47
2018-12-23T03:58:14.880Z,5.80
2018-12-23T04:00:43.336Z,5.95
2018-12-23T04:03:12.854Z,7.75
2018-12-23T04:05:41.331Z,7.78
2018-12-23T04:08:10.376Z,5.92
2018-12-23T04:10:39.062Z,7.33
2018-12-23T04:13:08.288Z,7.15
2018-12-23T04:15:37.147Z,7.90
2018-12-23T04:18:05.628Z,8.38
2018-12-23T04:20:34.111Z,6.60
2018-12-23T04:23:02.978Z,9.00
2018-12-23T04:25:31.840Z,8.30
2018-12-23T04:28:00.336Z,8.45
2018-12-23T04:30:29.208Z,9.05
2018-12-23T04:32:57.689Z,8.15
2018-12-23T04:35:26.155Z,10.50
2018-12-23T04:37:54.611Z,8.80
2018-12-23T04:40:23.128Z,8.75
2018-12-23T04:42:51.597Z,9.05
2018-12-23T04:45:20.476Z,7.55
2018-12-23T04:47:49.104Z,9.08
2018-12-23T04:50:18.206Z,7.37
2018-12-23T04:52:47.040Z,13.00
2018-12-23T04:55:16.309Z,9.18
2018-12-23T04:57:44.857Z,7.20
2018-12-23T05:00:13.719Z,8.18
2018-12-23T05:02:42.203Z,10.68
2018-12-23T05:05:11.457Z,8.45
2018-12-23T05:07:40.335Z,8.70
2018-12-23T05:10:08.908Z,9.18
2018-12-23T05:12:37.376Z,9.78
2018-12-23T05:15:06.425Z,8.25
2018-12-23T05:17:35.297Z,6.60
2018-12-23T05:20:04.188Z,8.75
2018-12-23T05:22:33.054Z,7.78
2018-12-23T05:25:01.557Z,7.65
2018-12-23T05:27:30.024Z,5.35
2018-12-23T05:29:58.497Z,5.92
2018-12-23T05:32:27.361Z,4.92
2018-12-23T05:34:56.207Z,5.20
2018-12-23T05:37:24.671Z,4.80
2018-12-23T05:39:53.154Z,6.15
2018-12-23T05:42:21.629Z,5.80
2018-12-23T05:44:50.496Z,6.08
2018-12-23T05:47:19.389Z,9.30
2018-12-23T05:49:47.855Z,4.22
2018-12-23T05:52:16.323Z,4.20
2018-12-23T05:54:45.804Z,4.47
2018-12-23T05:57:14.318Z,4.08
2018-12-23T05:59:42.800Z,4.58
2018-12-23T06:02:11.665Z,5.00
2018-12-23T06:04:40.145Z,5.67
2018-12-23T06:07:08.612Z,3.60
2018-12-23T06:09:37.406Z,3.42
2018-12-23T06:12:06.022Z,4.35
2018-12-23T06:14:34.918Z,5.58
2018-12-23T06:17:04.271Z,4.55
2018-12-23T06:19:32.746Z,4.25
2018-12-23T06:22:01.210Z,3.47
2018-12-23T06:24:29.682Z,4.42
2018-12-23T06:26:58.539Z,6.53
2018-12-23T06:29:26.990Z,6.58
2018-12-23T06:31:55.456Z,3.95
2018-12-23T06:34:24.643Z,4.65
2018-12-23T06:36:53.523Z,3.02
2018-12-23T06:39:21.992Z,3.87
2018-12-23T06:41:50.466Z,3.12
2018-12-23T06:44:18.994Z,2.70
2018-12-23T06:46:47.662Z,4.87
2018-12-23T06:49:16.543Z,3.05
2018-12-23T06:51:44.999Z,5.67
2018-12-23T06:54:13.468Z,2.98
2018-12-23T06:56:41.944Z,3.87
2018-12-23T06:59:10.830Z,4.10
2018-12-23T07:01:40.154Z,4.25
2018-12-23T07:04:09.003Z,3.95
2018-12-23T07:06:37.492Z,4.28
2018-12-23T07:09:07.242Z,5.22
2018-12-23T07:11:35.743Z,2.77
2018-12-23T07:14:04.607Z,3.83
2018-12-23T07:16:33.853Z,3.80
2018-12-23T07:19:02.342Z,4.75
2018-12-23T07:21:31.220Z,4.03
2018-12-23T07:24:10.501Z,4.65
2018-12-23T07:26:39.420Z,4.85
2018-12-23T07:29:10.533Z,4.87
2018-12-23T07:31:39.479Z,8.10
2018-12-23T07:34:09.320Z,3.15
2018-12-23T07:36:57.211Z,4.20
2018-12-23T07:39:25.698Z,5.25
2018-12-23T07:41:55.599Z,5.20
2018-12-23T07:44:24.088Z,9.25
2018-12-23T07:46:52.915Z,3.83
2018-12-23T07:49:21.823Z,6.62
2018-12-23T07:51:50.356Z,7.72
2018-12-23T07:54:18.862Z,7.20
2018-12-23T07:56:47.420Z,5.50
2018-12-23T07:59:16.322Z,5.62
2018-12-23T08:01:45.623Z,6.47
2018-12-23T08:04:14.587Z,14.47
2018-12-23T08:06:44.078Z,7.40
2018-12-23T08:09:13.357Z,9.13
2018-12-23T08:11:41.851Z,8.13
2018-12-23T08:14:10.712Z,12.53
2018-12-23T08:16:39.236Z,9.05
2018-12-23T08:19:08.115Z,8.00
2018-12-23T08:21:36.614Z,6.20
2018-12-23T08:24:05.957Z,8.60
2018-12-23T08:26:34.752Z,9.13
2018-12-23T08:29:03.627Z,5.97
2018-12-23T08:31:32.528Z,5.37
2018-12-23T08:34:01.403Z,8.10
2018-12-23T08:36:29.934Z,6.17
2018-12-23T08:38:58.652Z,11.40
2018-12-23T08:41:27.148Z,5.42
2018-12-23T08:43:56.041Z,6.67
2018-12-23T08:46:24.712Z,5.60
2018-12-23T08:48:53.183Z,7.58
2018-12-23T08:51:21.704Z,10.08
2018-12-23T08:53:50.192Z,12.55
2018-12-23T08:56:19.425Z,6.53
2018-12-23T08:58:48.307Z,5.85
2018-12-23T09:01:16.809Z,4.50
2018-12-23T09:03:45.303Z,5.85
2018-12-23T09:06:14.184Z,10.25
2018-12-23T09:08:43.089Z,6.67
2018-12-23T09:11:11.555Z,8.50
2018-12-23T09:13:40.071Z,5.53
2018-12-23T09:16:08.967Z,8.28
2018-12-23T09:18:37.443Z,7.08
2018-12-23T09:21:06.000Z,7.90
2018-12-23T09:23:34.926Z,8.20
2018-12-23T09:26:03.835Z,10.85
2018-12-23T09:28:32.328Z,7.90
2018-12-23T09:31:01.222Z,11.68
2018-12-23T09:33:30.136Z,5.65
2018-12-23T09:35:58.660Z,3.87
2018-12-23T09:38:27.549Z,4.47
2018-12-23T09:40:56.501Z,8.05
2018-12-23T09:43:25.378Z,4.62
2018-12-23T09:45:54.355Z,9.33
2018-12-23T09:48:24.330Z,5.20
2018-12-23T09:50:53.628Z,9.28
2018-12-23T09:53:22.152Z,7.65
2018-12-23T09:55:51.098Z,4.72
2018-12-23T09:58:19.710Z,5.08
2018-12-23T10:00:48.514Z,5.40
2018-12-23T10:03:17.114Z,8.48
2018-12-23T10:08:25.271Z,5.53
2018-12-23T10:10:55.170Z,6.40
2018-12-23T10:13:24.245Z,5.05
2018-12-23T10:15:53.200Z,9.00
2018-12-23T10:18:21.742Z,7.55
2018-12-23T10:20:50.606Z,9.65
2018-12-23T10:23:19.514Z,4.12
2018-12-23T10:25:48.085Z,6.80
2018-12-23T10:28:16.603Z,6.20
2018-12-23T10:30:45.123Z,5.22
2018-12-23T10:33:20.322Z,9.40
2018-12-23T10:35:49.890Z,5.53
2018-12-23T10:38:18.863Z,6.03
2018-12-23T10:40:48.235Z,6.75
2018-12-23T10:43:17.167Z,8.60
2018-12-23T10:45:46.137Z,8.58
2018-12-23T10:48:15.294Z,9.88
2018-12-23T10:50:44.189Z,4.87
2018-12-23T10:53:13.138Z,4.87
2018-12-23T10:55:41.659Z,5.95
2018-12-23T10:58:12.842Z,10.70
2018-12-23T11:00:42.282Z,6.60
2018-12-23T11:03:10.908Z,7.70
2018-12-23T11:05:39.836Z,5.97
2018-12-23T11:08:27.117Z,13.13
2018-12-23T11:10:57.150Z,6.70
2018-12-23T11:13:25.687Z,5.85
2018-12-23T11:15:54.352Z,4.45
2018-12-23T11:18:23.105Z,7.08
2018-12-23T11:20:52.019Z,5.75
2018-12-23T11:23:20.948Z,5.92
2018-12-23T11:25:49.441Z,10.25
2018-12-23T11:28:17.956Z,8.25
2018-12-23T11:30:46.806Z,5.72
2018-12-23T11:33:15.323Z,10.00
2018-12-23T11:35:43.865Z,9.78
2018-12-23T11:38:12.823Z,9.35
2018-12-23T11:40:41.751Z,7.25
2018-12-23T11:43:10.972Z,5.50
2018-12-23T11:45:39.459Z,5.47
2018-12-23T11:48:07.978Z,9.80
2018-12-23T11:50:36.499Z,15.38
2018-12-23T11:53:05.472Z,6.53
2018-12-23T11:55:34.010Z,6.40
2018-12-23T11:58:02.493Z,6.50
2018-12-23T12:00:30.965Z,4.28
2018-12-23T12:02:59.870Z,10.38
2018-12-23T12:05:28.391Z,13.05
2018-12-23T12:07:57.255Z,5.87
2018-12-23T12:10:26.786Z,5.62
2018-12-23T12:12:55.255Z,8.70
2018-12-23T12:15:23.750Z,7.95
2018-12-23T12:17:52.249Z,5.30
2018-12-23T12:20:21.130Z,6.28
2018-12-23T12:22:50.111Z,6.92
2018-12-23T12:25:18.679Z,9.05
2018-12-23T12:27:47.201Z,7.12
2018-12-23T12:30:15.737Z,5.83
2018-12-23T12:32:44.252Z,11.35
2018-12-23T12:35:13.139Z,4.97
2018-12-23T12:40:34.528Z,8.70
2018-12-23T12:43:03.512Z,8.60
2018-12-23T12:45:32.773Z,3.98
2018-12-23T12:48:01.728Z,9.35
2018-12-23T12:50:30.264Z,5.58
2018-12-23T12:52:59.124Z,8.60
2018-12-23T12:55:27.685Z,3.85
2018-12-23T12:57:56.892Z,3.10
2018-12-23T13:01:09.141Z,4.87
2018-12-23T13:03:37.808Z,5.75
2018-12-23T13:06:06.759Z,6.90
2018-12-23T13:11:14.817Z,5.58
2018-12-23T13:14:00.521Z,22.55
2018-12-23T13:17:03.781Z,9.28
2018-12-23T13:19:33.620Z,8.58
2018-12-23T13:22:03.747Z,6.75
2018-12-23T13:24:32.279Z,9.95
2018-12-23T13:27:00.894Z,3.83
2018-12-23T13:29:29.362Z,8.63
2018-12-23T13:31:58.788Z,4.58
2018-12-23T13:42:33.951Z,6.90
2018-12-23T13:45:40.024Z,6.03
2018-12-23T13:48:49.549Z,6.97
2018-12-23T13:51:40.463Z,4.80
2018-12-23T13:54:37.614Z,10.85
2018-12-23T13:57:23.701Z,3.65
2018-12-23T14:00:11.455Z,4.00
2018-12-23T14:03:04.153Z,6.95
2018-12-23T14:06:09.529Z,8.35
2018-12-23T14:09:17.105Z,6.58
2018-12-23T14:11:55.255Z,3.83
2018-12-23T14:14:24.990Z,10.68
2018-12-23T14:16:54.604Z,11.20
2018-12-23T14:19:25.164Z,7.78
2018-12-23T14:21:54.688Z,6.25
2018-12-23T14:24:24.550Z,6.10
2018-12-23T14:26:54.187Z,5.87
2018-12-23T14:29:23.973Z,5.03
2018-12-23T14:31:53.596Z,7.22
2018-12-23T14:34:23.157Z,8.13
2018-12-23T14:36:52.778Z,7.47
2018-12-23T14:39:28.249Z,8.18
2018-12-23T14:41:54.636Z,8.70
2018-12-23T14:44:24.271Z,6.78
2018-12-23T14:46:53.877Z,4.03
2018-12-23T14:49:23.548Z,7.28
2018-12-23T14:51:53.069Z,8.83
2018-12-23T14:54:22.658Z,6.08
2018-12-23T14:56:52.187Z,12.45
2018-12-23T14:59:21.870Z,10.15
2018-12-23T15:01:51.481Z,10.38
2018-12-23T15:04:21.091Z,5.28
2018-12-23T15:06:50.728Z,9.00
2018-12-23T15:09:20.355Z,4.40
2018-12-23T15:11:49.899Z,4.85
2018-12-23T15:14:19.622Z,12.63
2018-12-23T15:16:49.177Z,5.65
2018-12-23T15:19:18.712Z,7.37
2018-12-23T15:21:48.296Z,9.15
2018-12-23T15:24:17.889Z,6.10
2018-12-23T15:26:47.396Z,8.45
2018-12-23T15:29:17.630Z,6.60
2018-12-23T15:31:48.379Z,10.48
2018-12-23T15:34:17.950Z,13.70
2018-12-23T15:36:47.545Z,6.60
2018-12-23T15:39:17.206Z,8.95
2018-12-23T15:41:46.755Z,8.80
2018-12-23T15:44:16.384Z,15.72
2018-12-23T15:46:45.927Z,6.65
2018-12-23T15:49:15.468Z,7.12
2018-12-23T15:51:44.996Z,13.15
2018-12-23T15:54:14.552Z,11.30
2018-12-23T15:56:44.437Z,7.90
2018-12-23T15:59:13.971Z,8.08
2018-12-23T16:01:43.456Z,8.80
2018-12-23T16:04:13.308Z,8.53
2018-12-23T16:06:42.881Z,10.85
2018-12-23T16:09:12.465Z,7.75
2018-12-23T16:11:41.997Z,12.70
2018-12-23T16:14:11.623Z,10.88
2018-12-23T16:16:41.137Z,7.12
2018-12-23T16:19:10.745Z,10.48
2018-12-23T16:21:42.406Z,6.47
2018-12-23T16:24:12.028Z,8.53
2018-12-23T16:26:41.612Z,10.43
2018-12-23T16:29:11.105Z,8.23
2018-12-23T16:31:40.718Z,10.95
2018-12-23T16:34:10.575Z,11.43
2018-12-23T16:36:40.202Z,9.03
2018-12-23T16:39:09.845Z,10.20
2018-12-23T16:41:39.350Z,13.98
2018-12-23T16:44:08.992Z,9.88
2018-12-23T16:46:38.565Z,7.87
2018-12-23T16:49:08.165Z,8.40
2018-12-23T16:51:37.676Z,10.05
2018-12-23T16:54:07.252Z,11.70
2018-12-23T16:56:38.825Z,9.20
2018-12-23T16:59:08.437Z,7.35
2018-12-23T17:01:37.965Z,8.30
2018-12-23T17:04:07.474Z,9.73
2018-12-23T17:06:37.122Z,11.78
2018-12-23T17:09:08.038Z,10.70
2018-12-23T17:11:37.528Z,8.45
2018-12-23T17:14:07.107Z,9.43
2018-12-23T17:16:36.656Z,11.03
2018-12-23T17:19:06.163Z,12.00
2018-12-23T17:21:35.700Z,9.85
2018-12-23T17:24:05.284Z,11.08
2018-12-23T17:26:34.851Z,10.55
2018-12-23T17:29:04.340Z,9.30
2018-12-23T17:31:33.852Z,9.15
2018-12-23T17:34:03.353Z,12.65
2018-12-23T17:36:32.868Z,14.40
2018-12-23T17:39:02.498Z,12.93
2018-12-23T17:41:32.137Z,12.33
2018-12-23T17:44:01.751Z,9.53
2018-12-23T17:46:31.353Z,11.28
2018-12-23T17:49:00.971Z,15.03
2018-12-23T17:51:30.569Z,13.45
2018-12-23T17:54:00.081Z,8.85
2018-12-23T17:56:29.653Z,11.30
2018-12-23T17:58:59.212Z,11.90
2018-12-23T18:01:28.772Z,11.75
2018-12-23T18:04:02.272Z,11.88
2018-12-23T18:06:29.779Z,12.28
2018-12-23T18:08:59.273Z,13.90
2018-12-23T18:11:28.846Z,11.15
2018-12-23T18:13:58.405Z,14.33
2018-12-23T18:16:28.006Z,16.62
2018-12-23T18:18:57.569Z,13.50
2018-12-23T18:21:27.105Z,15.08
2018-12-23T18:23:56.719Z,15.25
2018-12-23T18:26:26.294Z,11.83
2018-12-23T18:28:55.923Z,14.30
2018-12-23T18:31:25.451Z,17.55
2018-12-23T18:33:54.987Z,15.70
2018-12-23T18:36:24.520Z,13.00
2018-12-23T18:38:54.057Z,8.80
2018-12-23T18:41:23.564Z,17.55
2018-12-23T18:43:53.086Z,14.00
2018-12-23T18:46:22.830Z,14.60
2018-12-23T18:48:52.557Z,14.53
2018-12-23T18:51:22.153Z,15.32
2018-12-23T18:53:51.646Z,10.80
2018-12-23T18:56:28.603Z,16.23
2018-12-23T18:58:58.124Z,16.27
2018-12-23T19:01:28.862Z,15.10
2018-12-23T19:03:58.492Z,21.12
2018-12-23T19:06:28.116Z,21.85
2018-12-23T19:09:11.098Z,17.60
2018-12-23T19:12:11.837Z,19.27
2018-12-23T19:15:12.271Z,19.40
2018-12-23T19:18:13.816Z,15.75
2018-12-23T19:21:11.557Z,20.55
2018-12-23T19:23:56.374Z,19.90
2018-12-23T19:27:12.128Z,16.23
2018-12-23T19:30:06.975Z,18.92
2018-12-23T19:33:12.437Z,17.12
2018-12-23T19:36:13.037Z,21.62
2018-12-23T19:39:26.116Z,19.55
2018-12-23T19:42:48.979Z,21.20
2018-12-23T19:45:51.301Z,13.58
2018-12-23T19:49:00.592Z,9.65
2018-12-23T19:52:10.008Z,9.38
2018-12-23T19:55:00.856Z,8.80
2018-12-23T19:58:06.361Z,7.92
2018-12-23T20:00:57.877Z,13.88
2018-12-23T20:03:53.880Z,10.03
2018-12-23T20:07:13.767Z,10.00
2018-12-23T20:10:17.754Z,10.88
2018-12-23T20:13:24.608Z,9.33
2018-12-23T20:16:08.109Z,11.25
2018-12-23T20:19:19.220Z,13.18
2018-12-23T20:22:20.116Z,13.03
2018-12-23T20:25:37.660Z,17.27
2018-12-23T20:28:40.898Z,10.72
2018-12-23T20:32:04.914Z,13.40
2018-12-23T20:35:03.035Z,13.75
2018-12-23T20:37:49.711Z,11.63
2018-12-23T20:41:07.579Z,12.88
2018-12-23T20:44:16.485Z,14.30
2018-12-23T20:47:01.708Z,11.93
2018-12-23T20:50:01.621Z,15.40
2018-12-23T20:53:01.401Z,14.87
2018-12-23T20:56:27.444Z,11.95
2018-12-23T20:59:38.921Z,14.10
2018-12-23T21:02:51.596Z,18.07
2018-12-23T21:06:08.257Z,13.98
2018-12-23T21:09:21.345Z,10.58
2018-12-23T21:12:33.936Z,11.05
2018-12-23T21:15:45.299Z,13.13
2018-12-23T21:19:04.260Z,14.75
2018-12-23T21:21:42.980Z,13.85
2018-12-23T21:25:01.819Z,13.20
2018-12-23T21:28:08.400Z,11.10
2018-12-23T21:31:03.824Z,12.88
2018-12-23T21:34:09.578Z,11.68
2018-12-23T21:37:17.704Z,14.60
2018-12-23T21:40:11.301Z,15.20
2018-12-23T21:43:09.548Z,11.57
2018-12-23T21:46:00.353Z,14.63
2018-12-23T21:49:00.484Z,12.47
2018-12-23T21:52:05.290Z,14.83
2018-12-23T21:55:15.517Z,15.35
2018-12-23T21:58:10.645Z,10.82
2018-12-23T22:01:16.013Z,11.50
2018-12-23T22:04:15.874Z,9.55
2018-12-23T22:07:10.510Z,10.13
2018-12-23T22:10:29.417Z,8.53
2018-12-23T22:13:27.417Z,8.20
2018-12-23T22:15:57.128Z,7.08
2018-12-23T22:18:27.622Z,7.30
2018-12-23T22:20:57.384Z,8.58
2018-12-23T22:23:28.181Z,4.83
2018-12-23T22:25:59.807Z,7.50
2018-12-23T22:28:30.544Z,5.37
2018-12-23T22:31:00.060Z,5.75
2018-12-23T22:33:29.556Z,9.30
2018-12-23T22:36:00.310Z,5.58
2018-12-23T22:38:29.806Z,6.55
2018-12-23T22:41:03.006Z,7.12
2018-12-23T22:43:32.559Z,4.25
2018-12-23T22:46:02.072Z,5.55
2018-12-23T22:48:31.575Z,4.42
2018-12-23T22:51:01.080Z,6.12
2018-12-23T22:53:30.576Z,5.80
2018-12-23T22:56:00.046Z,6.90
2018-12-23T22:58:29.662Z,3.75
2018-12-23T23:00:59.381Z,3.67
2018-12-23T23:03:29.324Z,4.83
2018-12-23T23:05:58.858Z,3.55
2018-12-23T23:08:28.345Z,5.85
2018-12-23T23:10:57.869Z,3.67
2018-12-23T23:13:27.375Z,5.17
2018-12-23T23:15:56.906Z,3.67
2018-12-23T23:18:26.473Z,4.12
2018-12-23T23:20:55.986Z,3.10
2018-12-23T23:23:25.643Z,3.87
2018-12-23T23:25:56.514Z,2.95
2018-12-23T23:28:26.032Z,3.27
2018-12-23T23:30:55.619Z,3.85
2018-12-23T23:33:27.487Z,3.35
2018-12-23T23:35:57.044Z,2.10
2018-12-23T23:38:26.568Z,1.92
2018-12-23T23:40:56.171Z,2.95
2018-12-23T23:43:25.731Z,3.50
2018-12-23T23:45:55.270Z,2.17
2018-12-23T23:48:24.780Z,2.08
2018-12-23T23:50:54.306Z,2.40
2018-12-23T23:53:23.887Z,1.55
2018-12-23T23:55:53.443Z,2.17
2018-12-23T23:58:23.012Z,2.62
